createdAt,value
2019-06-15T00:01:04.306Z,4.77
2019-06-15T00:03:33.023Z,4.80
2019-06-15T00:06:01.650Z,4.87
2019-06-15T00:08:30.316Z,4.90
2019-06-15T00:10:58.993Z,5.27
2019-06-15T00:13:27.661Z,5.13
2019-06-15T00:15:56.438Z,4.70
2019-06-15T00:18:25.237Z,4.83
2019-06-15T00:20:53.903Z,4.70
2019-06-15T00:23:22.626Z,5.33
2019-06-15T00:25:51.356Z,5.10
2019-06-15T00:28:20.077Z,4.73
2019-06-15T00:30:48.787Z,4.95
2019-06-15T00:33:17.489Z,4.53
2019-06-15T00:35:46.146Z,4.67
2019-06-15T00:38:14.812Z,5.45
2019-06-15T00:40:43.566Z,4.80
2019-06-15T00:43:12.213Z,4.53
2019-06-15T00:45:40.866Z,4.90
2019-06-15T00:48:09.539Z,3.73
2019-06-15T00:50:38.229Z,5.07
2019-06-15T00:53:06.889Z,4.90
2019-06-15T00:55:35.482Z,4.80
2019-06-15T00:58:04.261Z,4.60
2019-06-15T01:00:32.957Z,4.97
2019-06-15T01:03:01.563Z,5.30
2019-06-15T01:05:30.218Z,4.37
2019-06-15T01:07:58.899Z,5.23
2019-06-15T01:10:27.589Z,4.37
2019-06-15T01:12:56.195Z,4.53
2019-06-15T01:15:25.009Z,4.30
2019-06-15T01:17:53.755Z,4.60
2019-06-15T01:20:22.546Z,4.63
2019-06-15T01:22:51.269Z,4.50
2019-06-15T01:25:21.191Z,4.17
2019-06-15T01:27:49.975Z,4.33
2019-06-15T01:30:18.871Z,5.23
2019-06-15T01:32:47.588Z,5.50
2019-06-15T01:35:16.245Z,4.77
2019-06-15T01:37:44.928Z,5.20
2019-06-15T01:40:13.762Z,5.70
2019-06-15T01:42:42.519Z,4.60
2019-06-15T01:45:11.166Z,4.47
2019-06-15T01:47:39.823Z,4.70
2019-06-15T01:50:08.683Z,4.83
2019-06-15T01:52:37.446Z,4.80
2019-06-15T01:55:20.036Z,5.27
2019-06-15T01:57:36.398Z,5.33
2019-06-15T02:00:06.093Z,5.10
2019-06-15T02:02:34.764Z,5.73
2019-06-15T02:05:03.483Z,5.80
2019-06-15T02:07:32.237Z,6.00
2019-06-15T02:10:01.049Z,5.60
2019-06-15T02:12:29.659Z,6.70
2019-06-15T02:14:58.246Z,5.80
2019-06-15T02:17:26.969Z,6.37
2019-06-15T02:19:55.672Z,6.53
2019-06-15T02:22:24.764Z,6.27
2019-06-15T02:24:53.350Z,6.13
2019-06-15T02:27:22.162Z,5.70
2019-06-15T02:29:50.921Z,6.37
2019-06-15T02:32:19.483Z,5.80
2019-06-15T02:34:48.040Z,5.97
2019-06-15T02:37:16.753Z,6.30
2019-06-15T02:39:45.414Z,6.60
2019-06-15T02:42:14.122Z,7.53
2019-06-15T02:44:42.690Z,6.70
2019-06-15T02:47:11.531Z,7.03
2019-06-15T02:49:40.212Z,6.83
2019-06-15T02:52:09.013Z,6.03
2019-06-15T02:54:37.822Z,6.40
2019-06-15T02:57:06.486Z,7.27
2019-06-15T02:59:35.146Z,8.70
2019-06-15T03:02:03.753Z,8.50
2019-06-15T03:04:32.484Z,8.37
2019-06-15T03:07:01.102Z,7.67
2019-06-15T03:09:29.872Z,7.63
2019-06-15T03:11:58.565Z,6.80
2019-06-15T03:14:27.657Z,7.00
2019-06-15T03:16:56.230Z,7.40
2019-06-15T03:19:24.932Z,7.30
2019-06-15T03:21:53.611Z,7.53
2019-06-15T03:24:23.334Z,7.70
2019-06-15T03:26:51.904Z,7.50
2019-06-15T03:29:20.586Z,8.53
2019-06-15T03:31:49.338Z,7.60
2019-06-15T03:34:18.034Z,7.63
2019-06-15T03:36:46.651Z,7.17
2019-06-15T03:39:15.333Z,6.90
2019-06-15T03:41:44.097Z,6.80
2019-06-15T03:44:12.796Z,6.97
2019-06-15T03:46:41.511Z,6.37
2019-06-15T03:49:10.085Z,5.77
2019-06-15T03:51:38.667Z,6.07
2019-06-15T03:54:07.330Z,6.10
2019-06-15T03:56:36.015Z,5.47
2019-06-15T03:59:04.739Z,6.13
2019-06-15T04:01:36.634Z,5.10
2019-06-15T04:04:05.225Z,5.80
2019-06-15T04:06:33.834Z,6.33
2019-06-15T04:09:03.680Z,5.30
2019-06-15T04:11:32.398Z,6.07
2019-06-15T04:14:01.151Z,5.37
2019-06-15T04:16:29.910Z,6.00
2019-06-15T04:18:58.556Z,5.30
2019-06-15T04:21:27.206Z,5.60
2019-06-15T04:23:55.869Z,5.23
2019-06-15T04:26:35.747Z,5.70
2019-06-15T04:28:54.927Z,5.23
2019-06-15T04:31:23.681Z,5.03
2019-06-15T04:33:52.355Z,5.43
2019-06-15T04:36:21.022Z,4.93
2019-06-15T04:38:49.666Z,5.63
2019-06-15T04:41:18.337Z,4.80
2019-06-15T04:43:47.018Z,4.63
2019-06-15T04:46:15.756Z,4.60
2019-06-15T04:48:44.501Z,4.70
2019-06-15T04:51:13.092Z,4.60
2019-06-15T04:53:41.839Z,4.80
2019-06-15T04:56:10.572Z,4.47
2019-06-15T04:58:39.284Z,4.40
2019-06-15T05:01:07.985Z,4.73
2019-06-15T05:03:36.629Z,4.70
2019-06-15T05:06:05.311Z,4.70
2019-06-15T05:08:33.952Z,4.63
2019-06-15T05:11:03.672Z,4.40
2019-06-15T05:13:32.510Z,4.90
2019-06-15T05:16:01.197Z,4.30
2019-06-15T05:18:29.899Z,3.80
2019-06-15T05:20:58.621Z,4.47
2019-06-15T05:23:27.329Z,4.30
2019-06-15T05:25:56.035Z,4.50
2019-06-15T05:28:24.625Z,4.53
2019-06-15T05:30:53.283Z,4.37
2019-06-15T05:33:21.994Z,4.53
2019-06-15T05:35:50.685Z,3.93
2019-06-15T05:38:19.438Z,4.13
2019-06-15T05:40:48.137Z,4.13
2019-06-15T05:43:16.795Z,5.10
2019-06-15T05:45:45.435Z,4.53
2019-06-15T05:48:14.138Z,3.90
2019-06-15T05:50:42.791Z,4.85
2019-06-15T05:53:11.561Z,4.90
2019-06-15T05:55:40.135Z,4.70
2019-06-15T05:58:08.822Z,4.60
2019-06-15T06:00:37.554Z,4.67
2019-06-15T06:03:06.281Z,4.97
2019-06-15T06:05:34.859Z,4.80
2019-06-15T06:08:03.601Z,5.03
2019-06-15T06:10:33.951Z,4.43
2019-06-15T06:13:02.729Z,3.67
2019-06-15T06:15:31.422Z,4.23
2019-06-15T06:18:00.135Z,3.10
2019-06-15T06:20:28.869Z,3.30
2019-06-15T06:22:57.675Z,3.00
2019-06-15T06:25:26.400Z,2.57
2019-06-15T06:27:55.166Z,3.13
2019-06-15T06:30:23.784Z,2.60
2019-06-15T06:32:52.375Z,3.20
2019-06-15T06:35:21.223Z,2.60
2019-06-15T06:37:50.179Z,2.60
2019-06-15T06:40:19.054Z,2.53
2019-06-15T06:42:47.801Z,2.53
2019-06-15T06:45:16.548Z,2.45
2019-06-15T06:47:45.145Z,2.50
2019-06-15T06:50:14.376Z,2.30
2019-06-15T06:52:43.125Z,2.50
2019-06-15T06:55:11.833Z,2.07
2019-06-15T06:57:51.789Z,2.30
2019-06-15T07:00:10.884Z,2.37
2019-06-15T07:02:39.617Z,2.03
2019-06-15T07:05:08.845Z,2.20
2019-06-15T07:07:37.643Z,2.50
2019-06-15T07:10:07.453Z,2.10
2019-06-15T07:12:36.178Z,2.50
2019-06-15T07:15:05.516Z,2.13
2019-06-15T07:17:34.164Z,2.20
2019-06-15T07:20:02.994Z,2.00
2019-06-15T07:22:31.678Z,1.83
2019-06-15T07:25:00.511Z,1.50
2019-06-15T07:27:29.418Z,1.67
2019-06-15T07:29:58.247Z,1.40
2019-06-15T07:32:26.974Z,1.57
2019-06-15T07:35:01.483Z,1.70
2019-06-15T07:37:30.717Z,1.50
2019-06-15T07:40:00.285Z,2.00
2019-06-15T07:42:30.197Z,1.67
2019-06-15T07:44:59.821Z,1.60
2019-06-15T07:47:29.282Z,1.70
2019-06-15T07:49:58.769Z,1.63
2019-06-15T07:52:30.077Z,1.60
2019-06-15T07:54:59.808Z,1.80
2019-06-15T07:57:29.352Z,1.60
2019-06-15T08:00:02.054Z,1.43
2019-06-15T08:02:31.400Z,1.67
2019-06-15T08:05:00.981Z,1.50
2019-06-15T08:07:30.534Z,1.60
2019-06-15T08:10:01.476Z,1.50
2019-06-15T08:12:31.315Z,1.50
2019-06-15T08:15:00.891Z,1.70
2019-06-15T08:17:30.462Z,1.53
2019-06-15T08:19:59.993Z,1.63
2019-06-15T08:22:30.244Z,1.50
2019-06-15T08:24:59.510Z,1.73
2019-06-15T08:27:28.821Z,1.90
2019-06-15T08:29:58.231Z,1.40
2019-06-15T08:32:27.698Z,1.50
2019-06-15T08:34:57.088Z,1.60
2019-06-15T08:37:26.653Z,1.50
2019-06-15T08:39:56.168Z,1.70
2019-06-15T08:42:25.449Z,1.70
2019-06-15T08:44:54.907Z,1.70
2019-06-15T08:47:24.454Z,1.40
2019-06-15T08:49:53.821Z,1.23
2019-06-15T08:52:23.153Z,1.53
2019-06-15T08:54:52.533Z,1.20
2019-06-15T08:57:21.816Z,1.30
2019-06-15T08:59:51.129Z,1.50
2019-06-15T09:02:20.348Z,1.80
2019-06-15T09:04:49.863Z,1.43
2019-06-15T09:07:19.241Z,1.50
2019-06-15T09:09:49.548Z,1.60
2019-06-15T09:12:19.006Z,1.37
2019-06-15T09:14:48.424Z,1.63
2019-06-15T09:17:17.987Z,1.53
2019-06-15T09:19:47.601Z,1.40
2019-06-15T09:22:18.204Z,1.60
2019-06-15T09:24:47.717Z,1.50
2019-06-15T09:27:17.161Z,1.60
2019-06-15T09:29:48.335Z,1.50
2019-06-15T09:32:17.278Z,1.73
2019-06-15T09:34:47.215Z,1.83
2019-06-15T09:37:16.156Z,1.60
2019-06-15T09:39:44.903Z,1.70
2019-06-15T09:42:13.856Z,1.70
2019-06-15T09:44:42.514Z,1.60
2019-06-15T09:47:11.347Z,1.47
2019-06-15T09:49:43.107Z,1.70
2019-06-15T09:52:12.190Z,2.00
2019-06-15T09:54:41.375Z,1.67
2019-06-15T09:57:10.668Z,1.87
2019-06-15T09:59:43.195Z,1.90
2019-06-15T10:02:17.769Z,2.40
2019-06-15T10:04:53.722Z,2.20
2019-06-15T10:07:23.285Z,1.70
2019-06-15T10:09:52.795Z,1.70
2019-06-15T10:12:22.310Z,1.70
2019-06-15T10:14:51.783Z,1.50
2019-06-15T10:17:21.183Z,1.70
2019-06-15T10:19:50.784Z,1.83
2019-06-15T10:22:21.571Z,2.00
2019-06-15T10:24:52.200Z,2.17
2019-06-15T10:27:22.032Z,2.27
2019-06-15T10:29:54.554Z,2.37
2019-06-15T10:32:24.178Z,2.73
2019-06-15T10:34:53.911Z,2.43
2019-06-15T10:37:23.409Z,2.60
2019-06-15T10:39:52.924Z,2.63
2019-06-15T10:42:22.918Z,3.20
2019-06-15T10:44:52.485Z,3.30
2019-06-15T10:47:21.826Z,3.30
2019-06-15T10:49:51.491Z,3.60
2019-06-15T10:52:21.086Z,3.90
2019-06-15T10:54:50.693Z,3.57
2019-06-15T10:57:20.203Z,3.53
2019-06-15T10:59:57.489Z,3.50
2019-06-15T11:02:21.030Z,3.35
2019-06-15T11:04:50.687Z,3.70
2019-06-15T11:07:20.234Z,3.10
2019-06-15T11:09:49.774Z,3.10
2019-06-15T11:12:19.267Z,2.77
2019-06-15T11:14:49.218Z,2.57
2019-06-15T11:17:18.857Z,2.70
2019-06-15T11:19:48.476Z,3.03
2019-06-15T11:22:18.009Z,2.50
2019-06-15T11:24:47.621Z,2.77
2019-06-15T11:27:20.537Z,2.73
2019-06-15T11:29:50.170Z,2.70
2019-06-15T11:32:19.640Z,3.80
2019-06-15T11:34:49.308Z,2.77
2019-06-15T11:37:19.087Z,2.77
2019-06-15T11:39:48.688Z,3.57
2019-06-15T11:42:18.410Z,3.50
2019-06-15T11:44:47.884Z,3.80
2019-06-15T11:47:17.502Z,4.00
2019-06-15T11:49:47.046Z,4.00
2019-06-15T11:52:16.768Z,3.23
2019-06-15T11:54:46.693Z,3.93
2019-06-15T11:57:16.207Z,3.30
2019-06-15T11:59:45.719Z,3.23
2019-06-15T12:02:15.128Z,3.37
2019-06-15T12:04:57.651Z,3.15
2019-06-15T12:07:15.788Z,2.97
2019-06-15T12:09:45.202Z,3.67
2019-06-15T12:12:14.740Z,3.93
2019-06-15T12:14:44.296Z,3.43
2019-06-15T12:17:13.918Z,3.90
2019-06-15T12:19:43.682Z,3.90
2019-06-15T12:22:13.273Z,3.40
2019-06-15T12:24:42.788Z,3.33
2019-06-15T12:27:12.206Z,3.20
2019-06-15T12:29:41.537Z,3.60
2019-06-15T12:32:11.304Z,2.70
2019-06-15T12:34:41.149Z,3.40
2019-06-15T12:37:10.780Z,2.77
2019-06-15T12:39:42.105Z,2.73
2019-06-15T12:42:11.619Z,3.20
2019-06-15T12:44:41.284Z,3.00
2019-06-15T12:47:11.408Z,3.90
2019-06-15T12:49:41.044Z,4.00
2019-06-15T12:52:11.664Z,3.10
2019-06-15T12:54:41.337Z,3.50
2019-06-15T12:57:11.050Z,3.60
2019-06-15T12:59:40.351Z,3.27
2019-06-15T13:02:10.025Z,2.80
2019-06-15T13:04:41.249Z,2.87
2019-06-15T13:07:10.659Z,2.93
2019-06-15T13:09:40.156Z,3.40
2019-06-15T13:12:09.538Z,3.40
2019-06-15T13:14:38.950Z,3.00
2019-06-15T13:17:08.360Z,2.67
2019-06-15T13:19:37.928Z,2.80
2019-06-15T13:22:06.876Z,2.60
2019-06-15T13:24:37.097Z,2.53
2019-06-15T13:27:05.950Z,2.70
2019-06-15T13:29:35.411Z,2.80
2019-06-15T13:32:06.040Z,2.70
2019-06-15T13:34:35.576Z,2.47
2019-06-15T13:37:05.310Z,2.80
2019-06-15T13:39:34.578Z,2.57
2019-06-15T13:42:03.926Z,2.50
2019-06-15T13:44:33.107Z,2.50
2019-06-15T13:47:02.256Z,2.70
2019-06-15T13:49:31.553Z,2.70
2019-06-15T13:52:00.707Z,2.83
2019-06-15T13:54:30.033Z,2.63
2019-06-15T13:56:59.280Z,2.50
2019-06-15T13:59:28.677Z,2.70
2019-06-15T14:01:57.921Z,2.40
2019-06-15T14:04:28.204Z,2.47
2019-06-15T14:06:59.312Z,2.60
2019-06-15T14:09:28.845Z,2.40
2019-06-15T14:11:58.287Z,2.37
2019-06-15T14:14:27.705Z,2.40
2019-06-15T14:16:57.216Z,2.13
2019-06-15T14:19:26.935Z,2.40
2019-06-15T14:21:56.570Z,2.00
2019-06-15T14:24:26.069Z,5.50
2019-06-15T14:26:55.707Z,2.00
2019-06-15T14:29:25.293Z,2.17
2019-06-15T14:31:54.826Z,3.10
2019-06-15T14:34:24.386Z,3.07
2019-06-15T14:36:54.010Z,2.60
2019-06-15T14:39:23.676Z,2.10
2019-06-15T14:41:53.098Z,2.20
2019-06-15T14:44:22.723Z,2.00
2019-06-15T14:46:52.241Z,1.77
2019-06-15T14:49:21.938Z,2.57
2019-06-15T14:51:51.537Z,3.80
2019-06-15T14:54:20.921Z,2.73
2019-06-15T14:56:51.539Z,2.03
2019-06-15T14:59:21.142Z,2.43
2019-06-15T15:02:06.275Z,2.03
2019-06-15T15:04:22.392Z,2.00
2019-06-15T15:06:53.279Z,2.15
2019-06-15T15:09:22.828Z,2.03
2019-06-15T15:11:52.382Z,1.73
2019-06-15T15:14:21.868Z,2.00
2019-06-15T15:16:51.467Z,2.10
2019-06-15T15:19:21.236Z,2.30
2019-06-15T15:21:53.580Z,2.50
2019-06-15T15:24:23.199Z,2.43
2019-06-15T15:26:52.597Z,1.90
2019-06-15T15:29:22.374Z,1.97
2019-06-15T15:31:57.190Z,2.10
2019-06-15T15:34:26.127Z,1.67
2019-06-15T15:36:56.749Z,2.30
2019-06-15T15:39:27.363Z,2.00
2019-06-15T15:41:56.982Z,1.97
2019-06-15T15:44:27.060Z,1.90
2019-06-15T15:46:57.110Z,1.80
2019-06-15T15:49:26.944Z,1.70
2019-06-15T15:51:56.733Z,1.80
2019-06-15T15:54:26.817Z,6.47
2019-06-15T15:56:56.380Z,2.10
2019-06-15T15:59:26.171Z,2.10
2019-06-15T16:01:56.676Z,2.40
2019-06-15T16:04:26.512Z,1.77
2019-06-15T16:06:56.260Z,1.80
2019-06-15T16:09:27.119Z,1.90
2019-06-15T16:11:57.229Z,2.00
2019-06-15T16:14:27.937Z,2.10
2019-06-15T16:16:57.636Z,2.00
2019-06-15T16:19:27.798Z,2.07
2019-06-15T16:21:57.404Z,2.00
2019-06-15T16:24:27.460Z,2.20
2019-06-15T16:26:57.067Z,2.37
2019-06-15T16:29:26.720Z,2.30
2019-06-15T16:31:56.536Z,2.20
2019-06-15T16:34:26.991Z,2.20
2019-06-15T16:36:57.116Z,1.80
2019-06-15T16:39:26.975Z,2.07
2019-06-15T16:41:57.683Z,1.80
2019-06-15T16:44:27.182Z,2.37
2019-06-15T16:46:59.191Z,1.97
2019-06-15T16:49:36.281Z,2.40
2019-06-15T16:52:06.269Z,2.20
2019-06-15T16:54:36.188Z,2.20
2019-06-15T16:57:05.944Z,2.00
2019-06-15T16:59:36.405Z,2.13
2019-06-15T17:02:06.573Z,2.00
2019-06-15T17:04:36.483Z,3.30
2019-06-15T17:07:07.054Z,3.80
2019-06-15T17:09:36.904Z,2.85
2019-06-15T17:12:06.639Z,2.20
2019-06-15T17:14:36.546Z,8.37
2019-06-15T17:17:06.012Z,2.13
2019-06-15T17:19:36.274Z,2.20
2019-06-15T17:22:14.718Z,1.90
2019-06-15T17:24:37.154Z,2.00
2019-06-15T17:27:06.824Z,2.43
2019-06-15T17:29:36.360Z,2.10
2019-06-15T17:32:06.325Z,2.40
2019-06-15T17:34:36.521Z,2.17
2019-06-15T17:37:06.787Z,2.30
2019-06-15T17:39:37.533Z,2.07
2019-06-15T17:42:22.144Z,2.50
2019-06-15T17:44:46.017Z,2.60
2019-06-15T17:47:11.900Z,6.97
2019-06-15T17:49:41.647Z,3.53
2019-06-15T17:52:11.210Z,3.90
2019-06-15T17:54:40.785Z,2.37
2019-06-15T17:57:10.281Z,2.30
2019-06-15T17:59:39.588Z,2.40
2019-06-15T18:02:09.097Z,2.33
2019-06-15T18:04:38.562Z,2.13
2019-06-15T18:07:08.077Z,2.07
2019-06-15T18:09:37.055Z,2.30
2019-06-15T18:12:06.586Z,2.30
2019-06-15T18:14:36.750Z,2.37
2019-06-15T18:17:07.252Z,3.40
2019-06-15T18:19:36.935Z,4.37
2019-06-15T18:22:07.185Z,2.27
2019-06-15T18:24:37.211Z,2.17
2019-06-15T18:27:08.948Z,2.20
2019-06-15T18:29:36.997Z,2.67
2019-06-15T18:32:06.458Z,2.00
2019-06-15T18:34:36.825Z,2.40
2019-06-15T18:37:07.696Z,2.00
2019-06-15T18:39:36.932Z,2.20
2019-06-15T18:42:07.713Z,2.13
2019-06-15T18:44:36.751Z,2.17
2019-06-15T18:47:07.113Z,2.23
2019-06-15T18:49:36.331Z,2.20
2019-06-15T18:52:06.206Z,2.17
2019-06-15T18:54:36.399Z,2.13
2019-06-15T18:57:07.381Z,2.37
2019-06-15T18:59:36.515Z,2.13
2019-06-15T19:02:06.724Z,2.00
2019-06-15T19:04:35.675Z,2.13
2019-06-15T19:07:06.509Z,2.30
2019-06-15T19:09:35.549Z,2.40
2019-06-15T19:12:07.068Z,2.17
2019-06-15T19:14:36.503Z,2.10
2019-06-15T19:17:06.153Z,2.37
2019-06-15T19:19:37.741Z,2.30
2019-06-15T19:22:06.795Z,2.03
2019-06-15T19:24:36.793Z,2.13
2019-06-15T19:27:08.230Z,1.90
2019-06-15T19:29:37.493Z,1.90
2019-06-15T19:32:08.176Z,1.90
2019-06-15T19:34:47.193Z,1.90
2019-06-15T19:37:09.090Z,1.90
2019-06-15T19:39:38.571Z,2.20
2019-06-15T19:42:08.319Z,2.00
2019-06-15T19:44:37.197Z,2.13
2019-06-15T19:47:07.177Z,2.03
2019-06-15T19:49:36.351Z,2.27
2019-06-15T19:52:06.645Z,2.10
2019-06-15T19:54:36.540Z,2.00
2019-06-15T19:57:06.865Z,2.20
2019-06-15T19:59:36.636Z,5.60
2019-06-15T20:02:06.831Z,3.50
2019-06-15T20:04:37.497Z,2.40
2019-06-15T20:07:07.547Z,3.10
2019-06-15T20:09:39.160Z,2.97
2019-06-15T20:12:18.263Z,2.42
2019-06-15T20:14:39.711Z,2.40
2019-06-15T20:17:09.012Z,3.30
2019-06-15T20:19:38.355Z,10.47
2019-06-15T20:22:07.771Z,4.20
2019-06-15T20:24:36.589Z,3.83
2019-06-15T20:27:10.073Z,3.50
2019-06-15T20:29:36.184Z,2.90
2019-06-15T20:32:06.833Z,2.90
2019-06-15T20:34:37.141Z,2.50
2019-06-15T20:37:06.087Z,2.70
2019-06-15T20:39:36.297Z,2.33
2019-06-15T20:42:07.832Z,3.07
2019-06-15T20:44:36.754Z,2.93
2019-06-15T20:47:06.680Z,2.80
2019-06-15T20:49:36.984Z,2.80
2019-06-15T20:52:07.128Z,3.17
2019-06-15T20:54:36.110Z,2.90
2019-06-15T20:57:06.432Z,3.10
2019-06-15T20:59:36.957Z,2.80
2019-06-15T21:02:06.761Z,3.03
2019-06-15T21:04:36.400Z,2.90
2019-06-15T21:07:06.619Z,2.80
2019-06-15T21:09:36.327Z,3.20
2019-06-15T21:12:06.685Z,3.52
2019-06-15T21:14:36.611Z,3.03
2019-06-15T21:17:06.735Z,3.13
2019-06-15T21:19:36.126Z,3.10
2019-06-15T21:22:06.325Z,3.07
2019-06-15T21:24:37.356Z,2.70
2019-06-15T21:27:06.226Z,3.10
2019-06-15T21:29:37.031Z,2.73
2019-06-15T21:32:05.615Z,2.50
2019-06-15T21:34:36.245Z,3.07
2019-06-15T21:37:06.517Z,2.90
2019-06-15T21:39:36.520Z,2.90
2019-06-15T21:42:05.533Z,2.97
2019-06-15T21:44:36.142Z,3.00
2019-06-15T21:47:06.884Z,3.00
2019-06-15T21:49:35.884Z,2.93
2019-06-15T21:54:50.636Z,2.80
2019-06-15T21:57:20.046Z,2.50
2019-06-15T21:59:48.914Z,2.30
2019-06-15T22:02:17.821Z,2.67
2019-06-15T22:04:46.527Z,2.30
2019-06-15T22:07:16.905Z,2.80
2019-06-15T22:09:46.920Z,2.90
2019-06-15T22:12:16.303Z,2.77
2019-06-15T22:14:46.668Z,3.00
2019-06-15T22:17:16.887Z,2.53
2019-06-15T22:19:46.668Z,2.97
2019-06-15T22:22:16.448Z,2.90
2019-06-15T22:24:46.915Z,2.83
2019-06-15T22:27:17.056Z,3.10
2019-06-15T22:29:47.227Z,3.10
2019-06-15T22:32:16.621Z,3.10
2019-06-15T22:34:47.062Z,3.00
2019-06-15T22:37:17.376Z,2.83
2019-06-15T22:39:46.730Z,2.80
2019-06-15T22:42:16.799Z,2.90
2019-06-15T22:44:46.439Z,3.00
2019-06-15T22:47:16.824Z,3.00
2019-06-15T22:49:46.838Z,2.80
2019-06-15T22:52:17.092Z,2.93
2019-06-15T22:54:46.507Z,2.97
2019-06-15T22:57:16.742Z,2.80
2019-06-15T22:59:46.157Z,2.90
2019-06-15T23:02:16.763Z,2.87
2019-06-15T23:04:47.127Z,3.23
2019-06-15T23:07:16.176Z,3.10
2019-06-15T23:09:46.763Z,2.87
2019-06-15T23:12:15.478Z,3.43
2019-06-15T23:14:46.443Z,3.20
2019-06-15T23:17:14.803Z,3.30
2019-06-15T23:24:12.050Z,3.30
2019-06-15T23:26:50.445Z,3.33
2019-06-15T23:29:19.249Z,3.40
2019-06-15T23:31:48.106Z,3.57
2019-06-15T23:34:16.852Z,3.13
2019-06-15T23:36:56.836Z,3.27
2019-06-15T23:39:18.946Z,3.80
2019-06-15T23:41:47.708Z,4.10
2019-06-15T23:44:16.576Z,3.50
2019-06-15T23:46:46.960Z,4.13
2019-06-15T23:49:16.408Z,4.90
2019-06-15T23:51:46.669Z,4.37
2019-06-15T23:54:16.900Z,3.63
2019-06-15T23:56:46.263Z,3.83
2019-06-15T23:59:18.009Z,3.97
